Loyal, WI (54446)

7:00 PM CDT on August 26, 2016 (GMT -0500)
Backyard, N. Andrews Ave | | Change Station

Elev 1161 ft 44.77 °N, 90.60 °W | Updated 7 seconds ago

Clear
Clear
67.6 °F
Feels Like 67.6 °F
N
0.1
Wind Variable Wind from West
Gusts 1.8 mph

Today
High -- | Low -- °F
--% Chance of Precip.
Yesterday
High -- | Low -- °F
Precip. -- in
Pressure 30.16 in
Visibility 10.0 miles
Clouds Clear
Dew Point 56 °F
Humidity 66%
Rainfall 0.00 in
Snow Depth Not available.
6:17 AM 7:48 PM
Waning Crescent, 30% visible
METAR KMFI 262354Z AUTO 00000KT 10SM CLR 19/13 A3015 RMK AO2 SLP211 T01940133 10228 20194 58001
Pressure 30.16 in
Visibility 10.0 miles
Clouds Clear
Dew Point 56 °F
Humidity 66%
Rainfall 0.00 in
Snow Depth Not available.
6:17 AM 7:48 PM
Waning Crescent, 30% visible
METAR KMFI 262354Z AUTO 00000KT 10SM CLR 19/13 A3015 RMK AO2 SLP211 T01940133 10228 20194 58001

10-Day Weather Forecast

Almanac

Astronomy

Aug. 26, 2016 Rise Set
Actual Time
Civil Twilight
Nautical Twilight
Astronomical Twilight
Moon
Length of Visible Light
Length of Day
Tomorrow will be .
, % of the Moon is Illuminated

Today's Extremes

State Highs State Lows

Community

WunderPhotos

Upload Photos

1,935,255 photos uploaded!

WunderBlog® & News

Nearby

Air Quality

  Air Quality AQ Index Pollutant
Not available.

Snow Depth

Station Depth Elevation

Earthquake Activity

City Distance Mag. Time & Date
Minimum magnitude displayed is 2.5.

Coastal Water Temperatures

Place Temperature

Stations

Nearby Weather Stations

Station Location Temp. Windchill Dew Point Humidity Wind Precip. Elev Updated Type
                   

Watches & Warnings

There are currently no watches in effect.